Time;durP1;ratioP1;P1;durP2;ratioP2;P2;SDS_P1;SDS_P2;PMS_P1;PMS_P2;Temp;Humidity;BMP_temperature;BMP_pressure;BME280_temperature;BME280_humidity;BME280_pressure;Samples;Min_cycle;Max_cycle;Signal;HPM_P1;HPM_P2
2022/12/11 00:01:17;;;;;;;;;;;;;;;21.01;28.93;96467.78;5121469;28;953;-79
2022/12/11 00:03:44;;;;;;;;;;;;;;;21.10;28.57;96462.09;5119183;28;974;-79
2022/12/11 00:06:10;;;;;;;;;;;;;;;21.07;28.86;96460.19;5120414;28;919;-80
2022/12/11 00:08:36;;;;;;;;;;;;;;;20.72;29.12;96460.66;5083822;28;961;-80
2022/12/11 00:11:01;;;;;;;;;;;;;;;20.59;29.40;96454.41;5121559;28;1234;-80
2022/12/11 00:13:27;;;;;;;;;;;;;;;20.65;29.58;96448.91;5119573;28;1967;-80
2022/12/11 00:15:52;;;;;;;;;;;;;;;21.02;28.82;96450.31;5120967;28;871;-80
2022/12/11 00:18:18;;;;;;;;;;;;;;;21.05;29.00;96442.94;5100907;28;1003;-79
2022/12/11 00:20:43;;;;;;;;;;;;;;;20.98;28.88;96446.09;5120528;28;1089;-79
2022/12/11 00:23:09;;;;;;;;;;;;;;;20.91;29.08;96438.75;5120283;28;848;-79
2022/12/11 00:25:39;;;;;;;;;;;;;;;20.78;29.07;96436.16;5119430;28;909;-79
2022/12/11 00:28:05;;;;;;;;;;;;;;;20.51;29.46;96437.00;5118864;28;1007;-79
2022/12/11 00:30:30;;;;;;;;;;;;;;;20.71;29.72;96436.47;5120186;28;1010;-80
2022/12/11 00:32:55;;;;;;;;;;;;;;;20.99;29.20;96436.38;5119745;28;1905;-80
2022/12/11 00:35:21;;;;;;;;;;;;;;;21.13;28.77;96429.22;5119768;28;835;-80
2022/12/11 00:37:46;;;;;;;;;;;;;;;21.25;28.43;96428.22;5120319;28;928;-79
2022/12/11 00:40:12;;;;;;;;;;;;;;;21.35;28.42;96429.75;5119404;28;928;-80
2022/12/11 00:42:37;;;;;;;;;;;;;;;20.94;28.82;96431.38;5120265;28;920;-80
2022/12/11 00:45:03;;;;;;;;;;;;;;;20.78;29.45;96415.59;5119197;28;924;-80
2022/12/11 00:47:28;;;;;;;;;;;;;;;20.59;29.36;96403.56;5120381;28;1003;-79
2022/12/11 00:49:53;;;;;;;;;;;;;;;20.51;29.54;96400.28;5119679;28;944;-80
2022/12/11 00:52:19;;;;;;;;;;;;;;;20.83;29.52;96395.16;5119636;28;1898;-80
2022/12/11 00:54:44;;;;;;;;;;;;;;;21.03;28.96;96391.72;5119282;28;932;-80
2022/12/11 00:57:10;;;;;;;;;;;;;;;21.14;28.74;96391.19;5119930;28;979;-79
2022/12/11 00:59:35;;;;;;;;;;;;;;;20.86;29.34;96377.22;5119468;28;917;-79
2022/12/11 01:02:00;;;;;;;;;;;;;;;20.56;29.61;96367.75;5119801;28;968;-80
2022/12/11 01:04:26;;;;;;;;;;;;;;;20.46;29.77;96369.84;5118679;28;1010;-79
2022/12/11 01:06:51;;;;;;;;;;;;;;;20.57;29.83;96360.84;5120093;28;917;-80
2022/12/11 01:12:02;;;;;;;;;;;;;;;21.00;29.09;96359.53;5119793;28;1979;-80
2022/12/11 01:14:27;;;;;;;;;;;;;;;21.13;28.95;96362.13;5119140;28;982;-80
2022/12/11 01:16:53;;;;;;;;;;;;;;;20.83;29.55;96355.56;5119344;28;901;-79
2022/12/11 01:19:18;;;;;;;;;;;;;;;20.71;29.37;96354.50;5118489;28;912;-80
2022/12/11 01:21:44;;;;;;;;;;;;;;;20.47;30.10;96350.88;5119813;28;1216;-80
2022/12/11 01:24:09;;;;;;;;;;;;;;;21.15;29.17;96359.59;5119316;28;853;-80
2022/12/11 01:26:34;;;;;;;;;;;;;;;21.05;29.13;96355.28;5120498;28;879;-80
2022/12/11 01:29:00;;;;;;;;;;;;;;;21.29;28.63;96353.19;5118669;28;962;-80
2022/12/11 01:31:26;;;;;;;;;;;;;;;21.03;28.85;96357.78;5119864;28;808;-80
2022/12/11 01:33:52;;;;;;;;;;;;;;;20.64;29.67;96360.53;5118633;28;1901;-79
2022/12/11 01:36:18;;;;;;;;;;;;;;;20.54;29.95;96344.88;5120242;28;895;-80
2022/12/11 01:38:44;;;;;;;;;;;;;;;20.66;29.90;96358.00;5117156;28;917;-80
2022/12/11 01:41:10;;;;;;;;;;;;;;;21.00;29.28;96364.41;5120091;28;870;-80
2022/12/11 01:43:54;;;;;;;;;;;;;;;21.11;28.91;96353.34;5118334;28;840;-80
2022/12/11 01:46:19;;;;;;;;;;;;;;;21.17;28.96;96351.41;5119251;28;902;-79
2022/12/11 01:48:45;;;;;;;;;;;;;;;20.88;29.40;96352.09;5117896;28;1043;-80
2022/12/11 01:51:10;;;;;;;;;;;;;;;20.65;29.83;96350.00;5100499;28;1281;-80
2022/12/11 01:53:38;;;;;;;;;;;;;;;20.54;29.65;96340.00;5116638;28;1984;-79
2022/12/11 01:56:03;;;;;;;;;;;;;;;20.96;29.03;96335.53;5118348;28;969;-80
2022/12/11 01:58:30;;;;;;;;;;;;;;;21.04;28.99;96331.09;5098946;28;1054;-80
2022/12/11 02:00:55;;;;;;;;;;;;;;;21.10;28.72;96332.00;5119123;28;898;-80
2022/12/11 02:03:21;;;;;;;;;;;;;;;21.12;28.62;96320.19;5116571;28;935;-80
2022/12/11 02:05:46;;;;;;;;;;;;;;;20.97;29.26;96320.91;5118055;28;855;-79
2022/12/11 02:08:12;;;;;;;;;;;;;;;20.69;29.40;96314.66;5117869;28;944;-79
2022/12/11 02:10:37;;;;;;;;;;;;;;;20.70;29.70;96304.91;5118843;28;1192;-80
2022/12/11 02:13:05;;;;;;;;;;;;;;;21.20;28.88;96296.72;5118519;28;1905;-80
2022/12/11 02:15:35;;;;;;;;;;;;;;;21.06;28.74;96291.78;5117296;28;936;-79
2022/12/11 02:18:09;;;;;;;;;;;;;;;21.21;28.61;96286.97;5117174;28;971;-79
2022/12/11 02:20:35;;;;;;;;;;;;;;;20.94;28.91;96270.22;5118587;28;963;-79
2022/12/11 02:23:00;;;;;;;;;;;;;;;20.60;29.47;96275.13;5118061;28;873;-80
2022/12/11 02:25:30;;;;;;;;;;;;;;;20.62;29.76;96272.59;5118361;28;917;-80
2022/12/11 02:28:10;;;;;;;;;;;;;;;20.73;29.58;96261.56;5118634;28;1083;-80
2022/12/11 02:30:35;;;;;;;;;;;;;;;20.86;29.14;96260.53;5120805;28;911;-80
2022/12/11 02:33:01;;;;;;;;;;;;;;;21.05;28.88;96253.47;5122308;28;1913;-79
2022/12/11 02:35:33;;;;;;;;;;;;;;;21.04;28.86;96237.78;5123208;28;914;-80
2022/12/11 02:38:02;;;;;;;;;;;;;;;20.75;29.10;96229.97;5122470;28;933;-80
2022/12/11 02:40:29;;;;;;;;;;;;;;;20.65;29.55;96226.44;5121547;28;974;-80
2022/12/11 02:42:55;;;;;;;;;;;;;;;20.62;29.46;96216.06;5079125;28;998;-80
2022/12/11 02:45:20;;;;;;;;;;;;;;;20.96;29.15;96239.41;5079295;28;948;-80
2022/12/11 02:47:46;;;;;;;;;;;;;;;20.93;29.13;96223.41;5079344;28;1128;-79
2022/12/11 02:50:12;;;;;;;;;;;;;;;20.91;28.97;96206.16;5079122;28;886;-80
2022/12/11 02:52:38;;;;;;;;;;;;;;;20.59;29.49;96183.16;5062580;28;1983;-80
2022/12/11 02:55:04;;;;;;;;;;;;;;;20.56;29.67;96178.44;5078800;28;934;-80
2022/12/11 02:57:34;;;;;;;;;;;;;;;20.86;29.33;96198.34;5062467;28;899;-79
2022/12/11 02:59:59;;;;;;;;;;;;;;;21.03;29.28;96200.22;5078777;28;961;-80
2022/12/11 03:02:25;;;;;;;;;;;;;;;21.12;28.79;96188.03;5058666;28;1282;-79
2022/12/11 03:04:50;;;;;;;;;;;;;;;21.05;28.79;96196.91;5058328;28;1124;-79
2022/12/11 03:07:23;;;;;;;;;;;;;;;20.63;29.52;96200.72;5041610;28;964;-79
2022/12/11 03:09:49;;;;;;;;;;;;;;;20.76;29.32;96204.06;5057798;28;1076;-79
2022/12/11 03:12:18;;;;;;;;;;;;;;;20.79;29.82;96200.28;5058854;28;1910;-79
2022/12/11 03:14:44;;;;;;;;;;;;;;;20.91;29.20;96187.13;5074450;28;1000;-80
2022/12/11 03:17:16;;;;;;;;;;;;;;;21.10;28.99;96170.78;5062119;28;977;-79
2022/12/11 03:19:46;;;;;;;;;;;;;;;20.96;29.33;96182.84;5061362;28;949;-79
2022/12/11 03:22:15;;;;;;;;;;;;;;;20.80;29.30;96181.25;5061976;28;994;-79
2022/12/11 03:24:50;;;;;;;;;;;;;;;20.45;29.91;96183.84;5077584;28;1034;-79
2022/12/11 03:27:16;;;;;;;;;;;;;;;20.72;29.78;96183.66;5041453;28;943;-80
2022/12/11 03:29:44;;;;;;;;;;;;;;;21.12;29.19;96168.25;5057163;28;951;-79
2022/12/11 03:32:13;;;;;;;;;;;;;;;21.12;28.85;96165.41;5058420;28;1971;-79
2022/12/11 03:34:43;;;;;;;;;;;;;;;21.00;28.95;96191.94;5077737;28;1009;-79
2022/12/11 03:37:09;;;;;;;;;;;;;;;20.59;29.86;96194.44;5078266;28;1074;-79
2022/12/11 03:39:35;;;;;;;;;;;;;;;20.38;30.21;96210.41;5077346;28;1034;-79
2022/12/11 03:42:01;;;;;;;;;;;;;;;20.69;29.78;96203.66;5078275;28;962;-79
2022/12/11 03:44:27;;;;;;;;;;;;;;;20.93;29.45;96203.59;5077581;28;969;-79
2022/12/11 03:46:53;;;;;;;;;;;;;;;20.99;29.24;96193.22;5078109;28;916;-79
2022/12/11 03:49:19;;;;;;;;;;;;;;;20.71;29.56;96182.09;5076988;28;1055;-79
2022/12/11 03:51:45;;;;;;;;;;;;;;;20.62;29.64;96175.75;5077966;28;1068;-79
2022/12/11 03:54:11;;;;;;;;;;;;;;;20.49;29.63;96164.69;5076857;28;1897;-79
2022/12/11 03:56:36;;;;;;;;;;;;;;;20.96;29.42;96140.44;5060734;28;954;-79
2022/12/11 03:59:01;;;;;;;;;;;;;;;20.95;29.36;96127.59;5077403;28;902;-79
2022/12/11 04:01:27;;;;;;;;;;;;;;;21.09;29.16;96121.16;5098295;28;987;-79
2022/12/11 04:03:52;;;;;;;;;;;;;;;20.91;29.07;96095.88;5096931;28;1078;-79
2022/12/11 04:06:18;;;;;;;;;;;;;;;20.61;29.70;96086.59;5081019;28;840;-79
2022/12/11 04:08:43;;;;;;;;;;;;;;;20.53;29.62;96083.38;5080323;28;946;-79
2022/12/11 04:16:37;;;;;;;;;;;;;;;20.77;29.16;96109.50;5097330;28;842;-79
2022/12/11 04:24:31;;;;;;;;;;;;;;;20.81;29.55;96070.53;5101759;28;1061;-79
2022/12/11 04:26:56;;;;;;;;;;;;;;;20.95;29.36;96051.25;5119990;28;915;-79
2022/12/11 04:29:22;;;;;;;;;;;;;;;21.14;29.24;96058.28;5119264;28;952;-79
2022/12/11 04:31:49;;;;;;;;;;;;;;;20.96;29.37;96058.47;5122652;28;901;-78
2022/12/11 04:34:15;;;;;;;;;;;;;;;20.67;29.90;96037.38;5120043;28;1906;-80
2022/12/11 04:36:40;;;;;;;;;;;;;;;20.84;29.62;96051.06;5120159;28;912;-79
2022/12/11 04:39:05;;;;;;;;;;;;;;;20.68;29.50;96061.56;5119276;28;1522;-80
2022/12/11 04:41:31;;;;;;;;;;;;;;;20.76;29.98;96074.03;5120031;28;945;-79
2022/12/11 04:43:56;;;;;;;;;;;;;;;21.09;29.67;96095.72;5083116;28;1101;-79
2022/12/11 04:46:22;;;;;;;;;;;;;;;21.21;29.48;96086.16;5120533;28;914;-78
2022/12/11 04:48:48;;;;;;;;;;;;;;;20.81;30.04;96086.72;5118755;28;898;-79
2022/12/11 04:51:13;;;;;;;;;;;;;;;20.61;30.39;96114.84;5120054;28;960;-79
2022/12/11 04:53:39;;;;;;;;;;;;;;;20.60;30.64;96093.50;5115979;27;1979;-80
2022/12/11 04:56:04;;;;;;;;;;;;;;;20.94;30.41;96066.66;5117126;28;1115;-79
2022/12/11 04:58:30;;;;;;;;;;;;;;;21.08;30.06;96049.66;5118321;28;824;-79
2022/12/11 05:00:55;;;;;;;;;;;;;;;21.12;29.73;96049.47;5120208;28;1140;-80
2022/12/11 05:03:21;;;;;;;;;;;;;;;21.02;30.01;96039.53;5120585;27;907;-79
2022/12/11 05:05:47;;;;;;;;;;;;;;;20.67;30.40;96050.72;5140763;27;914;-79
2022/12/11 05:08:12;;;;;;;;;;;;;;;20.87;30.07;96050.06;5137982;27;1051;-79
2022/12/11 05:10:38;;;;;;;;;;;;;;;20.80;30.40;96057.66;5139835;27;1162;-80
2022/12/11 05:13:03;;;;;;;;;;;;;;;21.10;29.96;96066.16;5139898;27;1982;-80
2022/12/11 05:15:29;;;;;;;;;;;;;;;20.97;30.23;96074.16;5120812;27;1034;-80
2022/12/11 05:17:54;;;;;;;;;;;;;;;21.20;29.69;96084.59;5140367;27;926;-80
2022/12/11 05:20:19;;;;;;;;;;;;;;;20.95;30.04;96068.22;5139624;27;895;-79
2022/12/11 05:22:45;;;;;;;;;;;;;;;20.79;30.10;96073.06;5140056;27;810;-79
2022/12/11 05:25:10;;;;;;;;;;;;;;;20.70;30.27;96070.34;5139336;27;991;-79
2022/12/11 05:27:36;;;;;;;;;;;;;;;20.79;30.59;96067.44;5140094;27;987;-79
2022/12/11 05:30:02;;;;;;;;;;;;;;;21.01;29.70;96069.09;5139181;27;1120;-78
2022/12/11 05:32:27;;;;;;;;;;;;;;;21.10;29.73;96074.66;5140184;27;1893;-79
2022/12/11 05:34:53;;;;;;;;;;;;;;;20.94;29.74;96083.63;5138357;27;1053;-79
2022/12/11 05:37:19;;;;;;;;;;;;;;;20.72;30.13;96083.97;5140310;27;853;-80
2022/12/11 05:39:44;;;;;;;;;;;;;;;20.70;30.17;96101.41;5139378;27;949;-79
2022/12/11 05:42:10;;;;;;;;;;;;;;;21.06;29.79;96108.00;5139626;27;916;-80
2022/12/11 05:44:35;;;;;;;;;;;;;;;20.98;30.20;96101.16;5131542;27;1260;-82
2022/12/11 05:47:01;;;;;;;;;;;;;;;21.08;29.94;96094.13;5096985;28;1150;-81
2022/12/11 05:49:26;;;;;;;;;;;;;;;20.75;30.45;96103.56;5115809;28;1015;-81
2022/12/11 05:51:51;;;;;;;;;;;;;;;20.74;30.34;96101.25;5115032;28;1372;-81
2022/12/11 05:54:17;;;;;;;;;;;;;;;20.72;30.40;96101.69;5115543;28;1972;-82
2022/12/11 05:56:43;;;;;;;;;;;;;;;21.17;29.75;96107.41;5116913;28;948;-81
2022/12/11 05:59:08;;;;;;;;;;;;;;;20.94;30.33;96100.59;5115958;28;1048;-82
2022/12/11 06:01:35;;;;;;;;;;;;;;;21.18;29.62;96115.41;5116609;28;990;-82
2022/12/11 06:04:00;;;;;;;;;;;;;;;20.93;29.99;96105.44;5116566;28;945;-82
2022/12/11 06:06:26;;;;;;;;;;;;;;;20.75;30.34;96083.78;5121289;28;984;-82
2022/12/11 06:08:52;;;;;;;;;;;;;;;20.73;30.30;96080.69;5102867;28;1173;-82
2022/12/11 06:11:17;;;;;;;;;;;;;;;21.04;30.44;96093.56;5120798;28;1214;-78
2022/12/11 06:13:43;;;;;;;;;;;;;;;21.11;30.02;96090.34;5119738;28;2065;-80
2022/12/11 06:16:09;;;;;;;;;;;;;;;21.06;30.09;96079.72;5120879;28;943;-79
2022/12/11 06:18:38;;;;;;;;;;;;;;;20.94;29.92;96077.97;5121343;28;897;-82
2022/12/11 06:21:13;;;;;;;;;;;;;;;20.71;30.82;96077.53;5103358;28;1506;-81
2022/12/11 06:23:39;;;;;;;;;;;;;;;20.69;30.87;96085.72;5102251;28;1660;-81
2022/12/11 06:26:04;;;;;;;;;;;;;;;20.97;30.33;96082.63;5132000;27;890;-81
2022/12/11 06:28:30;;;;;;;;;;;;;;;21.04;30.32;96077.38;5121654;28;1078;-81
2022/12/11 06:30:57;;;;;;;;;;;;;;;21.19;29.88;96088.69;5123061;28;846;-82
2022/12/11 06:33:23;;;;;;;;;;;;;;;20.97;30.46;96088.28;5120654;28;1914;-80
2022/12/11 06:35:48;;;;;;;;;;;;;;;20.70;30.88;96087.28;5118546;28;1779;-82
2022/12/11 06:38:13;;;;;;;;;;;;;;;20.69;30.90;96085.72;5100973;28;898;-79
2022/12/11 06:40:39;;;;;;;;;;;;;;;20.68;30.67;96106.78;5102104;28;902;-79
2022/12/11 06:43:05;;;;;;;;;;;;;;;20.79;30.95;96111.88;5101357;28;937;-79
2022/12/11 06:45:30;;;;;;;;;;;;;;;21.00;30.53;96121.25;5101373;28;1016;-79
2022/12/11 06:47:55;;;;;;;;;;;;;;;21.03;30.38;96131.56;5101634;28;951;-79
2022/12/11 06:50:21;;;;;;;;;;;;;;;20.87;30.42;96129.22;5101831;28;882;-80
2022/12/11 06:52:46;;;;;;;;;;;;;;;20.61;30.87;96141.06;5101549;28;1968;-79
2022/12/11 06:55:12;;;;;;;;;;;;;;;20.49;31.30;96133.63;5101548;28;904;-79
2022/12/11 06:57:37;;;;;;;;;;;;;;;21.13;30.44;96129.44;5101753;28;947;-81
2022/12/11 07:00:03;;;;;;;;;;;;;;;21.20;29.96;96141.16;5101278;28;1035;-82
2022/12/11 07:02:28;;;;;;;;;;;;;;;21.18;30.03;96132.38;5100841;28;1473;-81
2022/12/11 07:04:54;;;;;;;;;;;;;;;21.05;30.15;96134.72;5081926;28;995;-80
2022/12/11 07:07:19;;;;;;;;;;;;;;;20.65;30.86;96133.19;5101944;28;1008;-81
2022/12/11 07:09:45;;;;;;;;;;;;;;;20.83;30.50;96128.63;5101102;28;1158;-81
2022/12/11 07:12:10;;;;;;;;;;;;;;;20.73;30.74;96148.50;5101322;28;1976;-81
2022/12/11 07:14:36;;;;;;;;;;;;;;;21.15;30.41;96139.00;5100289;28;908;-81
2022/12/11 07:17:01;;;;;;;;;;;;;;;21.17;30.47;96125.16;5065681;28;1114;-81
2022/12/11 07:19:27;;;;;;;;;;;;;;;21.14;30.20;96126.13;5099063;28;1292;-81
2022/12/11 07:21:52;;;;;;;;;;;;;;;20.94;30.49;96111.91;5101090;28;1073;-81
2022/12/11 07:24:18;;;;;;;;;;;;;;;20.92;30.80;96115.19;5100279;28;1013;-81
2022/12/11 07:26:43;;;;;;;;;;;;;;;20.74;30.78;96087.88;5100529;28;1102;-81
2022/12/11 07:29:09;;;;;;;;;;;;;;;21.16;30.37;96095.31;5080974;28;1027;-81
2022/12/11 07:31:34;;;;;;;;;;;;;;;21.16;30.46;96092.47;5100725;28;908;-81
2022/12/11 07:34:00;;;;;;;;;;;;;;;21.16;30.33;96103.78;5064460;28;1914;-81
2022/12/11 07:36:26;;;;;;;;;;;;;;;20.81;30.82;96081.84;5101575;28;965;-81
2022/12/11 07:38:51;;;;;;;;;;;;;;;20.70;31.16;96100.63;5100281;28;1051;-82
2022/12/11 07:41:17;;;;;;;;;;;;;;;20.89;30.74;96119.00;5099878;28;865;-81
2022/12/11 07:43:51;;;;;;;;;;;;;;;21.06;30.57;96120.06;5098704;28;1006;-82
2022/12/11 07:46:18;;;;;;;;;;;;;;;21.14;30.61;96126.13;5101296;28;1096;-82
2022/12/11 07:48:44;;;;;;;;;;;;;;;21.03;30.52;96137.22;5098457;28;914;-81
2022/12/11 07:51:10;;;;;;;;;;;;;;;20.92;30.84;96154.75;5082398;28;1086;-81
2022/12/11 07:53:36;;;;;;;;;;;;;;;20.97;30.59;96161.78;5099456;28;1981;-81
2022/12/11 07:56:01;;;;;;;;;;;;;;;20.77;31.04;96143.44;5100786;28;980;-81
2022/12/11 07:58:27;;;;;;;;;;;;;;;21.14;30.54;96126.13;5099078;28;848;-81
2022/12/11 08:00:52;;;;;;;;;;;;;;;21.10;30.92;96116.28;5100622;28;996;-81
2022/12/11 08:03:17;;;;;;;;;;;;;;;21.29;30.62;96109.91;5099367;28;1063;-82
2022/12/11 08:05:49;;;;;;;;;;;;;;;21.26;30.64;96116.56;5100457;28;920;-81
2022/12/11 08:08:15;;;;;;;;;;;;;;;20.98;30.83;96107.56;5107936;28;1702;-81
2022/12/11 08:10:40;;;;;;;;;;;;;;;20.89;30.85;96104.09;5120794;28;1326;-81
2022/12/11 08:13:05;;;;;;;;;;;;;;;20.64;31.17;96100.53;5119092;28;1919;-81
2022/12/11 08:15:31;;;;;;;;;;;;;;;20.96;31.14;96093.16;5121152;28;899;-81
2022/12/11 08:17:56;;;;;;;;;;;;;;;21.06;30.86;96079.72;5120370;28;973;-82
2022/12/11 08:20:22;;;;;;;;;;;;;;;21.10;30.73;96069.00;5120249;28;835;-81
2022/12/11 08:22:47;;;;;;;;;;;;;;;20.68;31.29;96029.72;5120151;28;902;-81
2022/12/11 08:25:13;;;;;;;;;;;;;;;20.61;31.50;96015.94;5120088;28;914;-81
2022/12/11 08:27:38;;;;;;;;;;;;;;;20.71;31.36;96043.63;5119515;28;955;-81
2022/12/11 08:30:04;;;;;;;;;;;;;;;21.13;30.83;96068.00;5118592;28;860;-82
2022/12/11 08:32:30;;;;;;;;;;;;;;;21.16;30.78;96074.75;5120781;27;1906;-81
2022/12/11 08:34:55;;;;;;;;;;;;;;;21.25;30.46;96092.38;5120212;28;871;-82
2022/12/11 08:37:21;;;;;;;;;;;;;;;20.80;30.88;96097.25;5120749;28;910;-82
2022/12/11 08:39:46;;;;;;;;;;;;;;;20.64;31.30;96094.09;5120095;28;853;-82
2022/12/11 08:42:12;;;;;;;;;;;;;;;20.72;31.02;96090.41;5103732;27;2158;-81
2022/12/11 08:44:37;;;;;;;;;;;;;;;21.11;30.57;96087.50;5132348;27;955;-81
2022/12/11 08:47:03;;;;;;;;;;;;;;;21.20;30.41;96095.91;5113812;28;1145;-81
2022/12/11 08:49:28;;;;;;;;;;;;;;;21.18;30.35;96109.75;5104067;28;1595;-82
2022/12/11 08:51:53;;;;;;;;;;;;;;;21.07;30.34;96124.47;5112326;28;894;-82
2022/12/11 08:54:19;;;;;;;;;;;;;;;20.80;30.67;96119.84;5108622;28;1914;-82
2022/12/11 08:56:44;;;;;;;;;;;;;;;20.68;30.94;96117.31;5116094;28;1002;-82
2022/12/11 08:59:10;;;;;;;;;;;;;;;20.93;30.88;96102.59;5099337;28;835;-81
2022/12/11 09:01:35;;;;;;;;;;;;;;;21.31;30.20;96106.66;5081356;28;1028;-82
2022/12/11 09:04:01;;;;;;;;;;;;;;;21.32;30.03;96103.34;5098167;28;873;-80
2022/12/11 09:06:27;;;;;;;;;;;;;;;20.88;30.58;96108.16;5100215;28;914;-81
2022/12/11 09:08:52;;;;;;;;;;;;;;;20.76;30.76;96107.94;5099107;28;1069;-81
2022/12/11 09:11:19;;;;;;;;;;;;;;;20.80;30.61;96108.56;5099819;28;1182;-81
2022/12/11 09:13:44;;;;;;;;;;;;;;;21.05;30.50;96095.91;5097109;28;1992;-81
2022/12/11 09:16:11;;;;;;;;;;;;;;;21.00;30.56;96098.63;5100072;28;1045;-81
2022/12/11 09:18:38;;;;;;;;;;;;;;;21.26;30.12;96088.28;5078976;28;1174;-81
2022/12/11 09:21:04;;;;;;;;;;;;;;;20.79;30.67;96090.03;5098688;28;870;-81
2022/12/11 09:23:30;;;;;;;;;;;;;;;20.73;30.83;96079.91;5106465;27;1522;-82
2022/12/11 09:25:55;;;;;;;;;;;;;;;20.76;30.63;96085.34;5100122;28;939;-82
2022/12/11 09:28:21;;;;;;;;;;;;;;;21.01;30.42;96078.34;5115390;28;1040;-82
2022/12/11 09:30:46;;;;;;;;;;;;;;;21.09;30.26;96084.41;5120429;28;804;-82
2022/12/11 09:33:12;;;;;;;;;;;;;;;21.29;29.83;96059.00;5099204;28;1988;-81
2022/12/11 09:35:37;;;;;;;;;;;;;;;21.01;30.16;96063.44;5118599;28;948;-82
2022/12/11 09:38:03;;;;;;;;;;;;;;;20.94;30.33;96052.53;5119019;28;972;-81
2022/12/11 09:40:28;;;;;;;;;;;;;;;20.63;31.08;96059.41;5118221;28;1602;-81
2022/12/11 09:43:05;;;;;;;;;;;;;;;20.91;30.71;96084.59;5107337;28;1989;-82
2022/12/11 09:45:30;;;;;;;;;;;;;;;21.11;30.50;96081.84;5118188;28;956;-82
2022/12/11 09:47:56;;;;;;;;;;;;;;;21.29;30.12;96087.28;5118104;28;1004;-82
2022/12/11 09:50:22;;;;;;;;;;;;;;;20.90;30.69;96071.72;5117357;28;832;-82
2022/12/11 09:52:48;;;;;;;;;;;;;;;20.88;30.45;96085.53;5117956;28;1965;-81
2022/12/11 09:55:17;;;;;;;;;;;;;;;20.74;30.67;96075.81;5118651;28;897;-82
2022/12/11 09:57:42;;;;;;;;;;;;;;;20.54;31.47;96067.97;5119405;28;862;-82
2022/12/11 10:00:12;;;;;;;;;;;;;;;20.97;30.45;96060.00;5118976;28;945;-82
2022/12/11 10:02:41;;;;;;;;;;;;;;;21.17;30.13;96045.97;5117267;28;915;-82
2022/12/11 10:05:12;;;;;;;;;;;;;;;20.96;30.35;96047.16;5117999;28;948;-82
2022/12/11 10:07:45;;;;;;;;;;;;;;;20.53;31.31;96043.81;5116458;28;1979;-81
2022/12/11 10:10:11;;;;;;;;;;;;;;;20.67;31.18;96037.38;5131335;28;1533;-81
2022/12/11 10:12:55;;;;;;;;;;;;;;;20.65;31.04;96025.03;5099307;28;1977;-82
2022/12/11 10:16:00;;;;;;;;;;;;;;;20.95;30.45;96045.59;5103005;28;1927;-80
2022/12/11 10:18:25;;;;;;;;;;;;;;;21.13;30.39;96039.72;5053189;28;1766;-82
2022/12/11 10:20:51;;;;;;;;;;;;;;;20.96;30.31;96042.28;5039201;28;1840;-81
2022/12/11 10:23:18;;;;;;;;;;;;;;;20.65;31.10;96039.16;5035590;28;1905;-82
2022/12/11 10:25:45;;;;;;;;;;;;;;;20.74;30.79;96025.72;5055954;28;914;-81
2022/12/11 10:28:13;;;;;;;;;;;;;;;20.70;30.97;96025.13;5036827;28;1664;-81
2022/12/11 10:30:40;;;;;;;;;;;;;;;20.97;30.79;96023.25;5055800;28;1036;-82
2022/12/11 10:33:05;;;;;;;;;;;;;;;21.10;30.22;96020.13;5038527;28;1976;-81
2022/12/11 10:35:33;;;;;;;;;;;;;;;21.09;30.02;96022.19;5044296;28;1123;-82
2022/12/11 10:38:18;;;;;;;;;;;;;;;20.85;30.87;96024.34;5002203;28;987;-81
2022/12/11 10:40:44;;;;;;;;;;;;;;;20.67;30.92;96025.31;5035492;28;885;-81
2022/12/11 10:43:10;;;;;;;;;;;;;;;20.72;30.85;96027.44;5034864;28;942;-82
2022/12/11 10:45:36;;;;;;;;;;;;;;;20.99;30.49;96024.34;5046925;28;1850;-82
2022/12/11 10:48:05;;;;;;;;;;;;;;;21.23;29.94;96017.75;5016465;28;1984;-82
2022/12/11 10:50:30;;;;;;;;;;;;;;;21.14;30.03;96023.53;5085931;28;1712;-82
2022/12/11 10:52:56;;;;;;;;;;;;;;;20.87;30.55;96033.09;5082393;28;1905;-80
2022/12/11 10:55:25;;;;;;;;;;;;;;;20.80;30.89;96040.72;5099039;28;926;-81
2022/12/11 10:57:57;;;;;;;;;;;;;;;20.71;30.79;96037.97;5090695;28;1478;-82
2022/12/11 11:00:27;;;;;;;;;;;;;;;20.88;30.73;96045.97;5098734;28;943;-81
2022/12/11 11:02:53;;;;;;;;;;;;;;;21.26;29.83;96048.69;5081708;28;963;-81
2022/12/11 11:05:33;;;;;;;;;;;;;;;21.21;29.98;96052.19;5081919;28;978;-82
2022/12/11 11:08:02;;;;;;;;;;;;;;;20.93;30.29;96053.75;5098654;28;955;-82
2022/12/11 11:10:28;;;;;;;;;;;;;;;20.83;30.45;96055.94;5098972;28;1102;-81
2022/12/11 11:13:00;;;;;;;;;;;;;;;20.72;30.83;96056.47;5098737;28;1909;-82
2022/12/11 11:15:26;;;;;;;;;;;;;;;20.59;30.98;96047.53;5098882;28;1008;-82
2022/12/11 11:17:55;;;;;;;;;;;;;;;20.81;30.65;96044.31;5081863;28;923;-81
2022/12/11 11:20:24;;;;;;;;;;;;;;;21.32;29.79;96049.59;5098933;28;903;-82
2022/12/11 11:22:50;;;;;;;;;;;;;;;21.11;30.02;96056.41;5064778;28;902;-81
2022/12/11 11:25:23;;;;;;;;;;;;;;;21.05;30.02;96067.63;5099576;28;983;-81
2022/12/11 11:27:52;;;;;;;;;;;;;;;20.88;30.18;96063.72;5112948;27;1947;-82
2022/12/11 11:30:25;;;;;;;;;;;;;;;20.90;30.35;96061.19;5141834;27;887;-82
2022/12/11 11:32:54;;;;;;;;;;;;;;;21.06;30.15;96054.25;5142106;27;1897;-81
2022/12/11 11:35:21;;;;;;;;;;;;;;;21.07;30.15;96050.16;5140231;27;1055;-82
2022/12/11 11:38:13;;;;;;;;;;;;;;;21.22;30.09;96059.41;5121898;27;994;-81
2022/12/11 11:40:40;;;;;;;;;;;;;;;20.88;30.58;96060.09;5137724;27;953;-81
2022/12/11 11:43:15;;;;;;;;;;;;;;;20.62;30.93;96049.34;5140029;27;928;-81
2022/12/11 11:45:59;;;;;;;;;;;;;;;20.72;30.57;96053.66;5140928;27;864;-82
2022/12/11 11:48:30;;;;;;;;;;;;;;;20.68;31.25;96044.63;5140067;27;923;-82
2022/12/11 11:50:56;;;;;;;;;;;;;;;20.98;30.45;96038.94;5142529;27;834;-81
2022/12/11 11:53:39;;;;;;;;;;;;;;;21.10;30.29;96052.03;5139303;27;1980;-82
2022/12/11 11:56:21;;;;;;;;;;;;;;;20.87;30.31;96045.19;5118058;27;1007;-82
2022/12/11 11:58:55;;;;;;;;;;;;;;;20.76;30.66;96025.22;5140681;27;934;-82
2022/12/11 12:01:20;;;;;;;;;;;;;;;20.61;30.82;96027.25;5141018;27;928;-81
2022/12/11 12:03:46;;;;;;;;;;;;;;;20.74;30.79;96025.72;5140147;27;925;-81
2022/12/11 12:06:14;;;;;;;;;;;;;;;21.07;30.16;96007.75;5141649;27;946;-81
2022/12/11 12:08:58;;;;;;;;;;;;;;;21.16;30.23;96007.66;5140240;27;916;-82
2022/12/11 12:11:29;;;;;;;;;;;;;;;20.92;30.20;96002.09;5139659;27;998;-81
2022/12/11 12:14:02;;;;;;;;;;;;;;;20.77;30.83;96013.41;5140808;27;1913;-81
2022/12/11 12:16:45;;;;;;;;;;;;;;;20.69;30.81;96017.91;5139948;27;891;-81
2022/12/11 12:19:20;;;;;;;;;;;;;;;21.00;30.37;96025.13;5140471;27;879;-82
2022/12/11 12:21:46;;;;;;;;;;;;;;;20.91;30.19;96011.84;5105742;27;1796;-81
2022/12/11 12:24:24;;;;;;;;;;;;;;;21.25;29.87;96052.78;5098519;28;811;-82
2022/12/11 12:27:00;;;;;;;;;;;;;;;20.99;30.21;96034.88;5100146;28;891;-81
2022/12/11 12:29:38;;;;;;;;;;;;;;;20.81;30.66;96025.31;5098609;28;1080;-82
2022/12/11 12:32:24;;;;;;;;;;;;;;;20.71;30.63;96023.84;5100473;28;903;-82
2022/12/11 12:35:08;;;;;;;;;;;;;;;20.70;30.89;96030.78;5099009;28;932;-82
2022/12/11 12:37:44;;;;;;;;;;;;;;;20.74;30.68;96031.34;5099742;28;996;-82
2022/12/11 12:40:14;;;;;;;;;;;;;;;21.01;30.42;96038.75;5098076;28;970;-81
2022/12/11 12:42:45;;;;;;;;;;;;;;;21.10;29.93;96032.22;5100214;28;856;-82
2022/12/11 12:45:10;;;;;;;;;;;;;;;20.89;30.23;96024.94;5099372;28;1140;-82
2022/12/11 12:47:36;;;;;;;;;;;;;;;20.69;30.80;96012.25;5100177;28;964;-81
2022/12/11 12:50:02;;;;;;;;;;;;;;;20.79;30.45;96010.13;5102167;28;1671;-82
2022/12/11 12:52:31;;;;;;;;;;;;;;;20.89;30.42;96008.75;5100162;28;1987;-82
2022/12/11 12:55:17;;;;;;;;;;;;;;;21.14;29.73;96015.84;5097761;28;927;-81
2022/12/11 12:57:49;;;;;;;;;;;;;;;21.03;29.81;96007.94;5097935;28;1054;-81
2022/12/11 13:00:33;;;;;;;;;;;;;;;20.64;30.78;96015.75;5098780;28;1025;-81
2022/12/11 13:03:00;;;;;;;;;;;;;;;20.67;30.59;96031.72;5098866;28;918;-82
2022/12/11 13:05:26;;;;;;;;;;;;;;;20.74;30.50;96042.66;5097677;28;857;-82
2022/12/11 13:07:53;;;;;;;;;;;;;;;20.86;30.36;96042.84;5098153;28;935;-82
2022/12/11 13:10:22;;;;;;;;;;;;;;;21.02;30.01;96037.47;5098008;28;1226;-81
2022/12/11 13:12:48;;;;;;;;;;;;;;;21.24;29.65;96025.78;5059549;28;1922;-82
2022/12/11 13:15:32;;;;;;;;;;;;;;;20.98;30.03;96034.06;5056212;28;1035;-81
2022/12/11 13:17:57;;;;;;;;;;;;;;;20.77;30.38;96036.03;5056077;28;1072;-82